sensor_id;sensor_type;location;lat;lon;timestamp;pressure;altitude;pressure_sealevel;temperature;humidity
20624;BME280;10471;42.736;23.346;2022-09-25T00:01:30;95930.59;;;7.35;100.00
20624;BME280;10471;42.736;23.346;2022-09-25T00:03:56;95933.91;;;7.31;100.00
20624;BME280;10471;42.736;23.346;2022-09-25T00:06:24;95927.59;;;7.27;100.00
20624;BME280;10471;42.736;23.346;2022-09-25T00:08:50;95931.72;;;7.23;100.00
20624;BME280;10471;42.736;23.346;2022-09-25T00:11:25;95934.03;;;7.19;100.00
20624;BME280;10471;42.736;23.346;2022-09-25T00:13:52;95930.53;;;7.14;100.00
20624;BME280;10471;42.736;23.346;2022-09-25T00:16:23;95928.16;;;7.13;100.00
20624;BME280;10471;42.736;23.346;2022-09-25T00:18:49;95927.59;;;7.11;100.00
20624;BME280;10471;42.736;23.346;2022-09-25T00:21:34;95928.31;;;7.06;100.00
20624;BME280;10471;42.736;23.346;2022-09-25T00:24:02;95928.00;;;7.03;100.00
20624;BME280;10471;42.736;23.346;2022-09-25T00:26:30;95931.31;;;6.98;100.00
20624;BME280;10471;42.736;23.346;2022-09-25T00:28:56;95939.09;;;6.93;100.00
20624;BME280;10471;42.736;23.346;2022-09-25T00:31:23;95935.94;;;6.91;100.00
20624;BME280;10471;42.736;23.346;2022-09-25T00:33:52;95927.53;;;6.89;100.00
20624;BME280;10471;42.736;23.346;2022-09-25T00:36:19;95920.16;;;6.86;100.00
20624;BME280;10471;42.736;23.346;2022-09-25T00:38:44;95918.00;;;6.83;100.00
20624;BME280;10471;42.736;23.346;2022-09-25T00:41:13;95916.41;;;6.82;100.00
20624;BME280;10471;42.736;23.346;2022-09-25T00:43:45;95924.50;;;6.81;100.00
20624;BME280;10471;42.736;23.346;2022-09-25T00:48:47;95903.72;;;6.74;100.00
20624;BME280;10471;42.736;23.346;2022-09-25T00:51:15;95904.97;;;6.72;100.00
20624;BME280;10471;42.736;23.346;2022-09-25T00:53:42;95913.53;;;6.67;100.00
20624;BME280;10471;42.736;23.346;2022-09-25T00:56:10;95909.72;;;6.58;100.00
20624;BME280;10471;42.736;23.346;2022-09-25T00:58:38;95916.00;;;6.57;100.00
20624;BME280;10471;42.736;23.346;2022-09-25T01:01:06;95909.16;;;6.56;100.00
20624;BME280;10471;42.736;23.346;2022-09-25T01:03:32;95902.38;;;6.55;100.00
20624;BME280;10471;42.736;23.346;2022-09-25T01:05:59;95915.91;;;6.52;100.00
20624;BME280;10471;42.736;23.346;2022-09-25T01:08:26;95900.69;;;6.50;100.00
20624;BME280;10471;42.736;23.346;2022-09-25T01:10:53;95896.41;;;6.44;100.00
20624;BME280;10471;42.736;23.346;2022-09-25T01:13:18;95896.41;;;6.44;100.00
20624;BME280;10471;42.736;23.346;2022-09-25T01:16:13;95887.81;;;6.32;100.00
20624;BME280;10471;42.736;23.346;2022-09-25T01:21:45;95903.66;;;6.25;100.00
20624;BME280;10471;42.736;23.346;2022-09-25T01:27:31;95903.31;;;6.22;100.00
20624;BME280;10471;42.736;23.346;2022-09-25T01:32:20;95902.66;;;6.15;100.00
20624;BME280;10471;42.736;23.346;2022-09-25T01:34:59;95903.16;;;6.12;100.00
20624;BME280;10471;42.736;23.346;2022-09-25T01:37:39;95903.63;;;6.09;100.00
20624;BME280;10471;42.736;23.346;2022-09-25T01:42:58;95902.72;;;6.03;100.00
20624;BME280;10471;42.736;23.346;2022-09-25T01:45:35;95905.00;;;6.00;100.00
20624;BME280;10471;42.736;23.346;2022-09-25T01:48:04;95902.88;;;5.97;100.00
20624;BME280;10471;42.736;23.346;2022-09-25T01:50:40;95907.81;;;5.82;100.00
20624;BME280;10471;42.736;23.346;2022-09-25T01:53:11;95911.78;;;5.85;100.00
20624;BME280;10471;42.736;23.346;2022-09-25T01:55:43;95909.84;;;5.80;100.00
20624;BME280;10471;42.736;23.346;2022-09-25T01:58:16;95908.06;;;5.81;100.00
20624;BME280;10471;42.736;23.346;2022-09-25T02:00:49;95905.66;;;5.79;100.00
20624;BME280;10471;42.736;23.346;2022-09-25T02:03:22;95904.28;;;5.77;100.00
20624;BME280;10471;42.736;23.346;2022-09-25T02:05:56;95900.75;;;5.71;100.00
20624;BME280;10471;42.736;23.346;2022-09-25T02:08:29;95894.97;;;5.69;100.00
20624;BME280;10471;42.736;23.346;2022-09-25T02:10:59;95899.41;;;5.69;100.00
20624;BME280;10471;42.736;23.346;2022-09-25T02:13:31;95892.81;;;5.66;100.00
20624;BME280;10471;42.736;23.346;2022-09-25T02:16:05;95898.50;;;5.63;100.00
20624;BME280;10471;42.736;23.346;2022-09-25T02:18:32;95902.59;;;5.59;100.00
20624;BME280;10471;42.736;23.346;2022-09-25T02:26:31;95909.91;;;5.57;100.00
20624;BME280;10471;42.736;23.346;2022-09-25T02:28:58;95907.84;;;5.59;100.00
20624;BME280;10471;42.736;23.346;2022-09-25T02:31:57;95906.13;;;5.53;100.00
20624;BME280;10471;42.736;23.346;2022-09-25T02:34:24;95912.84;;;5.49;100.00
20624;BME280;10471;42.736;23.346;2022-09-25T02:36:50;95905.94;;;5.55;100.00
20624;BME280;10471;42.736;23.346;2022-09-25T02:39:18;95904.19;;;5.60;100.00
20624;BME280;10471;42.736;23.346;2022-09-25T02:47:46;95904.88;;;5.67;100.00
20624;BME280;10471;42.736;23.346;2022-09-25T02:55:20;95903.38;;;5.71;100.00
20624;BME280;10471;42.736;23.346;2022-09-25T02:58:14;95905.19;;;5.71;100.00
20624;BME280;10471;42.736;23.346;2022-09-25T03:00:43;95905.19;;;5.71;100.00
20624;BME280;10471;42.736;23.346;2022-09-25T03:03:12;95909.88;;;5.69;100.00
20624;BME280;10471;42.736;23.346;2022-09-25T03:05:40;95902.56;;;5.71;100.00
20624;BME280;10471;42.736;23.346;2022-09-25T03:08:06;95907.25;;;5.69;100.00
20624;BME280;10471;42.736;23.346;2022-09-25T03:10:50;95906.69;;;5.67;100.00
20624;BME280;10471;42.736;23.346;2022-09-25T03:13:18;95893.06;;;5.65;100.00
20624;BME280;10471;42.736;23.346;2022-09-25T03:15:51;95898.50;;;5.63;100.00
20624;BME280;10471;42.736;23.346;2022-09-25T03:18:19;95903.72;;;5.63;100.00
20624;BME280;10471;42.736;23.346;2022-09-25T03:20:46;95906.56;;;5.62;100.00
20624;BME280;10471;42.736;23.346;2022-09-25T03:23:11;95896.84;;;5.57;100.00
20624;BME280;10471;42.736;23.346;2022-09-25T03:25:37;95897.84;;;5.56;100.00
20624;BME280;10471;42.736;23.346;2022-09-25T03:28:07;95895.47;;;5.55;100.00
20624;BME280;10471;42.736;23.346;2022-09-25T03:30:32;95892.53;;;5.51;100.00
20624;BME280;10471;42.736;23.346;2022-09-25T03:32:58;95884.09;;;5.49;100.00
20624;BME280;10471;42.736;23.346;2022-09-25T03:35:23;95893.53;;;5.50;100.00
20624;BME280;10471;42.736;23.346;2022-09-25T03:37:48;95889.00;;;5.46;100.00
20624;BME280;10471;42.736;23.346;2022-09-25T03:40:14;95901.03;;;5.47;100.00
20624;BME280;10471;42.736;23.346;2022-09-25T03:42:39;95901.72;;;5.42;100.00
20624;BME280;10471;42.736;23.346;2022-09-25T03:45:05;95910.72;;;5.35;100.00
20624;BME280;10471;42.736;23.346;2022-09-25T03:47:31;95904.00;;;5.27;100.00
20624;BME280;10471;42.736;23.346;2022-09-25T03:49:56;95907.22;;;5.29;100.00
20624;BME280;10471;42.736;23.346;2022-09-25T03:52:21;95905.03;;;5.26;100.00
20624;BME280;10471;42.736;23.346;2022-09-25T03:54:47;95909.38;;;5.21;100.00
20624;BME280;10471;42.736;23.346;2022-09-25T03:57:12;95911.41;;;5.19;100.00
20624;BME280;10471;42.736;23.346;2022-09-25T03:59:39;95916.31;;;5.16;100.00
20624;BME280;10471;42.736;23.346;2022-09-25T04:02:05;95918.22;;;5.09;100.00
20624;BME280;10471;42.736;23.346;2022-09-25T04:04:30;95923.34;;;5.04;100.00
20624;BME280;10471;42.736;23.346;2022-09-25T04:06:56;95923.00;;;5.00;100.00
20624;BME280;10471;42.736;23.346;2022-09-25T04:09:22;95915.28;;;4.94;100.00
20624;BME280;10471;42.736;23.346;2022-09-25T04:11:47;95915.94;;;4.89;100.00
20624;BME280;10471;42.736;23.346;2022-09-25T04:14:13;95915.59;;;4.86;100.00
20624;BME280;10471;42.736;23.346;2022-09-25T04:16:39;95908.25;;;4.83;100.00
20624;BME280;10471;42.736;23.346;2022-09-25T04:19:05;95914.72;;;4.80;100.00
20624;BME280;10471;42.736;23.346;2022-09-25T04:21:31;95911.97;;;4.64;100.00
20624;BME280;10471;42.736;23.346;2022-09-25T04:23:56;95921.94;;;4.67;100.00
20624;BME280;10471;42.736;23.346;2022-09-25T04:26:40;95922.19;;;4.65;100.00
20624;BME280;10471;42.736;23.346;2022-09-25T04:29:06;95918.31;;;4.68;100.00
20624;BME280;10471;42.736;23.346;2022-09-25T04:31:31;95912.09;;;4.69;100.00
20624;BME280;10471;42.736;23.346;2022-09-25T04:33:57;95916.28;;;4.70;100.00
20624;BME280;10471;42.736;23.346;2022-09-25T04:36:22;95912.66;;;4.71;100.00
20624;BME280;10471;42.736;23.346;2022-09-25T04:38:48;95920.47;;;4.71;100.00
20624;BME280;10471;42.736;23.346;2022-09-25T04:41:16;95928.66;;;4.74;100.00
20624;BME280;10471;42.736;23.346;2022-09-25T04:43:44;95927.88;;;4.74;100.00
20624;BME280;10471;42.736;23.346;2022-09-25T04:46:11;95921.16;;;4.78;100.00
20624;BME280;10471;42.736;23.346;2022-09-25T04:48:37;95918.09;;;4.81;100.00
20624;BME280;10471;42.736;23.346;2022-09-25T04:51:04;95926.50;;;4.83;100.00
20624;BME280;10471;42.736;23.346;2022-09-25T04:53:31;95925.84;;;4.87;100.00
20624;BME280;10471;42.736;23.346;2022-09-25T04:56:00;95927.41;;;4.88;100.00
20624;BME280;10471;42.736;23.346;2022-09-25T04:58:26;95915.84;;;4.96;100.00
20624;BME280;10471;42.736;23.346;2022-09-25T05:00:52;95928.56;;;5.04;100.00
20624;BME280;10471;42.736;23.346;2022-09-25T05:03:17;95914.84;;;5.08;100.00
20624;BME280;10471;42.736;23.346;2022-09-25T05:05:42;95927.53;;;5.16;100.00
20624;BME280;10471;42.736;23.346;2022-09-25T05:08:08;95924.91;;;5.27;100.00
20624;BME280;10471;42.736;23.346;2022-09-25T05:10:33;95923.88;;;5.40;100.00
20624;BME280;10471;42.736;23.346;2022-09-25T05:13:01;95917.16;;;5.55;100.00
20624;BME280;10471;42.736;23.346;2022-09-25T05:15:28;95921.56;;;5.66;100.00
20624;BME280;10471;42.736;23.346;2022-09-25T05:18:00;95922.94;;;5.80;100.00
20624;BME280;10471;42.736;23.346;2022-09-25T05:20:26;95915.72;;;5.98;100.00
20624;BME280;10471;42.736;23.346;2022-09-25T05:22:55;95919.50;;;6.19;100.00
20624;BME280;10471;42.736;23.346;2022-09-25T05:25:22;95915.56;;;6.33;100.00
20624;BME280;10471;42.736;23.346;2022-09-25T05:27:50;95917.66;;;6.47;100.00
20624;BME280;10471;42.736;23.346;2022-09-25T05:30:16;95920.78;;;6.60;100.00
20624;BME280;10471;42.736;23.346;2022-09-25T05:32:51;95924.19;;;6.77;100.00
20624;BME280;10471;42.736;23.346;2022-09-25T05:35:18;95930.38;;;6.88;100.00
20624;BME280;10471;42.736;23.346;2022-09-25T05:37:44;95927.53;;;6.89;100.00
20624;BME280;10471;42.736;23.346;2022-09-25T05:40:10;95937.28;;;6.94;100.00
20624;BME280;10471;42.736;23.346;2022-09-25T05:42:36;95928.84;;;7.08;100.00
20624;BME280;10471;42.736;23.346;2022-09-25T05:45:02;95921.78;;;7.25;100.00
20624;BME280;10471;42.736;23.346;2022-09-25T05:47:28;95924.13;;;7.43;100.00
20624;BME280;10471;42.736;23.346;2022-09-25T05:49:53;95923.06;;;7.60;100.00
20624;BME280;10471;42.736;23.346;2022-09-25T05:52:19;95930.22;;;7.86;100.00
20624;BME280;10471;42.736;23.346;2022-09-25T05:54:44;95930.13;;;8.02;100.00
20624;BME280;10471;42.736;23.346;2022-09-25T05:57:10;95927.56;;;8.07;100.00
20624;BME280;10471;42.736;23.346;2022-09-25T05:59:36;95921.44;;;8.18;100.00
20624;BME280;10471;42.736;23.346;2022-09-25T06:02:01;95921.09;;;8.36;100.00
20624;BME280;10471;42.736;23.346;2022-09-25T06:04:27;95923.28;;;8.44;100.00
20624;BME280;10471;42.736;23.346;2022-09-25T06:06:52;95921.91;;;8.63;100.00
20624;BME280;10471;42.736;23.346;2022-09-25T06:09:17;95922.22;;;8.71;100.00
20624;BME280;10471;42.736;23.346;2022-09-25T06:11:43;95917.97;;;8.97;100.00
20624;BME280;10471;42.736;23.346;2022-09-25T06:14:12;95912.88;;;9.16;100.00
20624;BME280;10471;42.736;23.346;2022-09-25T06:16:37;95914.59;;;9.42;100.00
20624;BME280;10471;42.736;23.346;2022-09-25T06:19:03;95909.75;;;9.66;100.00
20624;BME280;10471;42.736;23.346;2022-09-25T06:21:28;95919.59;;;9.90;100.00
20624;BME280;10471;42.736;23.346;2022-09-25T06:23:54;95929.22;;;10.16;100.00
20624;BME280;10471;42.736;23.346;2022-09-25T06:26:20;95928.22;;;10.32;100.00
20624;BME280;10471;42.736;23.346;2022-09-25T06:28:45;95936.16;;;10.46;100.00
20624;BME280;10471;42.736;23.346;2022-09-25T06:31:11;95932.75;;;10.61;100.00
20624;BME280;10471;42.736;23.346;2022-09-25T06:33:36;95930.94;;;10.76;100.00
20624;BME280;10471;42.736;23.346;2022-09-25T06:36:04;95929.88;;;10.92;100.00
20624;BME280;10471;42.736;23.346;2022-09-25T06:38:29;95931.25;;;11.10;100.00
20624;BME280;10471;42.736;23.346;2022-09-25T06:40:58;95924.88;;;11.25;100.00
20624;BME280;10471;42.736;23.346;2022-09-25T06:43:23;95936.25;;;11.16;100.00
20624;BME280;10471;42.736;23.346;2022-09-25T06:45:49;95933.34;;;11.27;100.00
20624;BME280;10471;42.736;23.346;2022-09-25T06:48:16;95933.59;;;11.31;100.00
20624;BME280;10471;42.736;23.346;2022-09-25T06:50:44;95929.06;;;11.46;100.00
20624;BME280;10471;42.736;23.346;2022-09-25T06:53:11;95919.03;;;11.68;100.00
20624;BME280;10471;42.736;23.346;2022-09-25T06:55:37;95917.13;;;11.93;100.00
20624;BME280;10471;42.736;23.346;2022-09-25T06:58:05;95923.63;;;12.21;100.00
20624;BME280;10471;42.736;23.346;2022-09-25T07:00:32;95916.41;;;12.41;100.00
20624;BME280;10471;42.736;23.346;2022-09-25T07:02:58;95927.97;;;12.50;95.70
20624;BME280;10471;42.736;23.346;2022-09-25T07:05:43;95937.88;;;12.73;95.00
20624;BME280;10471;42.736;23.346;2022-09-25T07:08:13;95939.94;;;12.81;94.89
20624;BME280;10471;42.736;23.346;2022-09-25T07:10:49;95936.03;;;13.11;96.62
20624;BME280;10471;42.736;23.346;2022-09-25T07:13:20;95929.47;;;13.37;94.14
20624;BME280;10471;42.736;23.346;2022-09-25T07:15:56;95929.84;;;13.54;94.07
20624;BME280;10471;42.736;23.346;2022-09-25T07:18:23;95936.06;;;13.68;90.18
20624;BME280;10471;42.736;23.346;2022-09-25T07:20:49;95951.50;;;13.61;87.33
20624;BME280;10471;42.736;23.346;2022-09-25T07:23:16;95958.72;;;13.56;85.12
20624;BME280;10471;42.736;23.346;2022-09-25T07:25:45;95943.53;;;13.61;85.15
20624;BME280;10471;42.736;23.346;2022-09-25T07:28:12;95946.66;;;13.68;85.00
20624;BME280;10471;42.736;23.346;2022-09-25T07:30:38;95946.47;;;13.88;86.61
20624;BME280;10471;42.736;23.346;2022-09-25T07:33:04;95948.56;;;13.91;81.75
20624;BME280;10471;42.736;23.346;2022-09-25T07:35:29;95942.56;;;14.04;82.94
20624;BME280;10471;42.736;23.346;2022-09-25T07:37:55;95939.09;;;14.08;78.11
20624;BME280;10471;42.736;23.346;2022-09-25T07:40:21;95924.63;;;14.24;78.28
20624;BME280;10471;42.736;23.346;2022-09-25T07:42:47;95917.97;;;14.27;77.16
20624;BME280;10471;42.736;23.346;2022-09-25T07:45:12;95917.25;;;14.40;77.26
20624;BME280;10471;42.736;23.346;2022-09-25T07:47:37;95911.00;;;14.31;75.35
20624;BME280;10471;42.736;23.346;2022-09-25T07:50:03;95905.41;;;14.32;75.26
20624;BME280;10471;42.736;23.346;2022-09-25T07:52:29;95904.50;;;14.42;76.10
20624;BME280;10471;42.736;23.346;2022-09-25T07:54:54;95896.78;;;14.63;73.48
20624;BME280;10471;42.736;23.346;2022-09-25T07:57:19;95885.72;;;14.56;70.65
20624;BME280;10471;42.736;23.346;2022-09-25T07:59:46;95883.38;;;14.73;70.91
20624;BME280;10471;42.736;23.346;2022-09-25T08:02:11;95879.81;;;14.96;70.10
20624;BME280;10471;42.736;23.346;2022-09-25T08:04:37;95895.19;;;14.99;65.75
20624;BME280;10471;42.736;23.346;2022-09-25T08:07:02;95887.50;;;14.98;65.29
20624;BME280;10471;42.736;23.346;2022-09-25T08:09:28;95895.44;;;15.16;60.27
20624;BME280;10471;42.736;23.346;2022-09-25T08:11:54;95887.41;;;15.21;59.25
20624;BME280;10471;42.736;23.346;2022-09-25T08:14:19;95892.72;;;15.21;58.99
20624;BME280;10471;42.736;23.346;2022-09-25T08:16:45;95876.78;;;15.21;60.31
20624;BME280;10471;42.736;23.346;2022-09-25T08:19:11;95882.09;;;15.21;62.15
20624;BME280;10471;42.736;23.346;2022-09-25T08:21:38;95876.03;;;15.34;66.35
20624;BME280;10471;42.736;23.346;2022-09-25T08:24:03;95863.09;;;15.46;64.34
20624;BME280;10471;42.736;23.346;2022-09-25T08:26:28;95868.50;;;15.54;61.07
20624;BME280;10471;42.736;23.346;2022-09-25T08:28:56;95858.97;;;15.67;62.21
20624;BME280;10471;42.736;23.346;2022-09-25T08:31:21;95848.16;;;15.76;63.51
20624;BME280;10471;42.736;23.346;2022-09-25T08:33:49;95857.97;;;15.89;61.93
20624;BME280;10471;42.736;23.346;2022-09-25T08:36:15;95847.84;;;16.05;60.97
20624;BME280;10471;42.736;23.346;2022-09-25T08:38:41;95837.78;;;16.15;59.52
20624;BME280;10471;42.736;23.346;2022-09-25T08:41:30;95826.88;;;16.30;58.32
20624;BME280;10471;42.736;23.346;2022-09-25T08:44:09;95832.31;;;16.47;57.20
20624;BME280;10471;42.736;23.346;2022-09-25T08:46:41;95844.31;;;16.58;54.94
20624;BME280;10471;42.736;23.346;2022-09-25T08:49:29;95852.38;;;16.66;53.15
20624;BME280;10471;42.736;23.346;2022-09-25T08:52:00;95842.16;;;16.60;51.34
20624;BME280;10471;42.736;23.346;2022-09-25T08:54:29;95845.50;;;16.52;51.70
20624;BME280;10471;42.736;23.346;2022-09-25T08:57:12;95844.94;;;16.55;51.35
20624;BME280;10471;42.736;23.346;2022-09-25T08:59:43;95847.25;;;16.70;52.42
20624;BME280;10471;42.736;23.346;2022-09-25T09:02:17;95839.53;;;16.82;53.81
20624;BME280;10471;42.736;23.346;2022-09-25T09:04:49;95841.81;;;16.97;52.31
20624;BME280;10471;42.736;23.346;2022-09-25T09:07:35;95830.91;;;17.07;52.29
20624;BME280;10471;42.736;23.346;2022-09-25T09:10:15;95829.09;;;17.15;51.01
20624;BME280;10471;42.736;23.346;2022-09-25T09:12:50;95820.75;;;17.30;51.42
20624;BME280;10471;42.736;23.346;2022-09-25T09:15:33;95821.09;;;17.37;51.10
20624;BME280;10471;42.736;23.346;2022-09-25T09:18:08;95804.34;;;17.45;52.58
20624;BME280;10471;42.736;23.346;2022-09-25T09:20:46;95799.88;;;17.54;51.31
20624;BME280;10471;42.736;23.346;2022-09-25T09:23:18;95803.84;;;17.73;50.51
20624;BME280;10471;42.736;23.346;2022-09-25T09:31:15;95785.28;;;18.07;47.17
20624;BME280;10471;42.736;23.346;2022-09-25T09:37:01;95780.66;;;18.46;46.34
20624;BME280;10471;42.736;23.346;2022-09-25T09:45:42;95780.16;;;18.61;44.95
20624;BME280;10471;42.736;23.346;2022-09-25T09:48:19;95774.66;;;18.83;45.15
20624;BME280;10471;42.736;23.346;2022-09-25T09:50:51;95776.84;;;19.15;44.98
20624;BME280;10471;42.736;23.346;2022-09-25T09:56:03;95770.69;;;19.60;43.30
20624;BME280;10471;42.736;23.346;2022-09-25T09:58:53;95756.47;;;19.76;43.58
20624;BME280;10471;42.736;23.346;2022-09-25T10:01:22;95759.88;;;19.85;44.62
20624;BME280;10471;42.736;23.346;2022-09-25T10:03:57;95766.53;;;19.71;43.81
20624;BME280;10471;42.736;23.346;2022-09-25T10:06:28;95751.75;;;19.73;42.64
20624;BME280;10471;42.736;23.346;2022-09-25T10:08:55;95750.59;;;19.83;43.64
20624;BME280;10471;42.736;23.346;2022-09-25T10:11:21;95745.38;;;19.86;43.67
20624;BME280;10471;42.736;23.346;2022-09-25T10:13:47;95749.16;;;19.85;42.97
20624;BME280;10471;42.736;23.346;2022-09-25T10:16:18;95747.88;;;19.91;43.25
20624;BME280;10471;42.736;23.346;2022-09-25T10:18:58;95741.63;;;19.87;42.42
20624;BME280;10471;42.736;23.346;2022-09-25T10:21:32;95729.97;;;19.83;42.49
20624;BME280;10471;42.736;23.346;2022-09-25T10:24:01;95736.25;;;19.96;43.89
20624;BME280;10471;42.736;23.346;2022-09-25T10:26:38;95730.31;;;20.11;43.78
20624;BME280;10471;42.736;23.346;2022-09-25T10:29:31;95723.84;;;20.32;42.69
20624;BME280;10471;42.736;23.346;2022-09-25T10:31:58;95725.34;;;20.42;42.56
20624;BME280;10471;42.736;23.346;2022-09-25T10:34:24;95710.97;;;20.46;42.51
20624;BME280;10471;42.736;23.346;2022-09-25T10:36:53;95721.31;;;20.56;40.87
20624;BME280;10471;42.736;23.346;2022-09-25T10:41:54;95725.31;;;20.62;40.94
20624;BME280;10471;42.736;23.346;2022-09-25T10:44:40;95705.59;;;20.87;42.04
20624;BME280;10471;42.736;23.346;2022-09-25T10:52:56;95709.41;;;21.54;39.08
20624;BME280;10471;42.736;23.346;2022-09-25T10:55:32;95710.63;;;21.56;38.76
20624;BME280;10471;42.736;23.346;2022-09-25T11:00:25;95697.53;;;21.78;38.65
20624;BME280;10471;42.736;23.346;2022-09-25T11:02:56;95698.19;;;21.99;38.32
20624;BME280;10471;42.736;23.346;2022-09-25T11:05:32;95692.50;;;22.01;39.41
20624;BME280;10471;42.736;23.346;2022-09-25T11:08:02;95689.75;;;22.25;38.76
20624;BME280;10471;42.736;23.346;2022-09-25T11:10:33;95692.56;;;22.55;38.99
20624;BME280;10471;42.736;23.346;2022-09-25T11:13:07;95681.72;;;22.79;37.15
20624;BME280;10471;42.736;23.346;2022-09-25T11:15:33;95675.41;;;22.87;36.27
20624;BME280;10471;42.736;23.346;2022-09-25T11:18:03;95675.28;;;22.68;36.82
20624;BME280;10471;42.736;23.346;2022-09-25T11:20:30;95665.22;;;22.65;36.69
20624;BME280;10471;42.736;23.346;2022-09-25T11:23:09;95670.38;;;22.58;36.63
20624;BME280;10471;42.736;23.346;2022-09-25T11:31:01;95665.41;;;22.72;35.74
20624;BME280;10471;42.736;23.346;2022-09-25T11:33:42;95669.00;;;22.92;36.35
20624;BME280;10471;42.736;23.346;2022-09-25T11:36:23;95664.53;;;23.11;35.98
20624;BME280;10471;42.736;23.346;2022-09-25T11:38:54;95658.13;;;23.46;36.19
20624;BME280;10471;42.736;23.346;2022-09-25T11:41:43;95652.16;;;23.87;35.71
20624;BME280;10471;42.736;23.346;2022-09-25T11:44:17;95641.16;;;24.11;34.84
20624;BME280;10471;42.736;23.346;2022-09-25T11:57:20;95621.66;;;24.36;33.29
20624;BME280;10471;42.736;23.346;2022-09-25T12:00:17;95621.50;;;24.67;31.98
20624;BME280;10471;42.736;23.346;2022-09-25T12:05:36;95601.72;;;25.01;33.22
20624;BME280;10471;42.736;23.346;2022-09-25T12:08:06;95605.56;;;25.22;32.82
20624;BME280;10471;42.736;23.346;2022-09-25T12:24:19;95587.72;;;25.66;32.18
20624;BME280;10471;42.736;23.346;2022-09-25T12:27:17;95574.78;;;26.04;32.10
20624;BME280;10471;42.736;23.346;2022-09-25T12:30:13;95577.63;;;26.18;31.44
20624;BME280;10471;42.736;23.346;2022-09-25T12:36:04;95574.88;;;26.11;31.17
20624;BME280;10471;42.736;23.346;2022-09-25T12:39:17;95564.34;;;26.06;31.83
20624;BME280;10471;42.736;23.346;2022-09-25T12:41:28;95570.00;;;25.94;30.88
20624;BME280;10471;42.736;23.346;2022-09-25T12:46:42;95567.69;;;25.96;30.19
20624;BME280;10471;42.736;23.346;2022-09-25T12:49:13;95563.09;;;26.29;30.14
20624;BME280;10471;42.736;23.346;2022-09-25T12:51:51;95555.56;;;26.45;29.96
20624;BME280;10471;42.736;23.346;2022-09-25T12:59:49;95538.66;;;26.51;29.53
20624;BME280;10471;42.736;23.346;2022-09-25T13:05:33;95529.25;;;26.39;29.49
20624;BME280;10471;42.736;23.346;2022-09-25T13:08:13;95517.91;;;26.62;29.72
20624;BME280;10471;42.736;23.346;2022-09-25T13:10:46;95511.94;;;26.86;28.46
20624;BME280;10471;42.736;23.346;2022-09-25T13:13:15;95505.81;;;26.96;29.03
20624;BME280;10471;42.736;23.346;2022-09-25T13:15:47;95508.38;;;27.22;29.00
20624;BME280;10471;42.736;23.346;2022-09-25T13:18:17;95514.50;;;27.12;29.42
20624;BME280;10471;42.736;23.346;2022-09-25T13:20:57;95499.44;;;27.18;29.00
20624;BME280;10471;42.736;23.346;2022-09-25T13:23:36;95496.66;;;27.04;29.65
20624;BME280;10471;42.736;23.346;2022-09-25T13:26:32;95499.13;;;26.80;28.98
20624;BME280;10471;42.736;23.346;2022-09-25T13:29:17;95494.69;;;27.01;29.93
20624;BME280;10471;42.736;23.346;2022-09-25T13:31:45;95495.09;;;27.03;28.86
20624;BME280;10471;42.736;23.346;2022-09-25T13:34:14;95482.75;;;27.06;29.98
20624;BME280;10471;42.736;23.346;2022-09-25T13:36:50;95481.28;;;26.75;28.64
20624;BME280;10471;42.736;23.346;2022-09-25T13:42:03;95482.75;;;27.09;30.82
20624;BME280;10471;42.736;23.346;2022-09-25T14:03:00;95475.25;;;26.13;32.04
20624;BME280;10471;42.736;23.346;2022-09-25T14:05:34;95471.41;;;26.14;32.38
20624;BME280;10471;42.736;23.346;2022-09-25T14:08:21;95465.56;;;26.45;31.71
20624;BME280;10471;42.736;23.346;2022-09-25T14:10:49;95470.81;;;26.70;31.20
20624;BME280;10471;42.736;23.346;2022-09-25T14:13:19;95469.25;;;26.69;32.42
20624;BME280;10471;42.736;23.346;2022-09-25T14:15:49;95469.75;;;26.39;30.45
20624;BME280;10471;42.736;23.346;2022-09-25T14:18:20;95466.22;;;26.35;32.14
20624;BME280;10471;42.736;23.346;2022-09-25T14:20:49;95458.94;;;26.39;31.59
20624;BME280;10471;42.736;23.346;2022-09-25T14:25:44;95453.00;;;25.90;32.23
20624;BME280;10471;42.736;23.346;2022-09-25T14:28:18;95456.09;;;25.63;34.08
20624;BME280;10471;42.736;23.346;2022-09-25T14:36:13;95459.00;;;25.18;33.75
20624;BME280;10471;42.736;23.346;2022-09-25T14:41:33;95464.84;;;25.23;35.16
20624;BME280;10471;42.736;23.346;2022-09-25T14:47:31;95459.13;;;25.28;32.76
20624;BME280;10471;42.736;23.346;2022-09-25T14:49:59;95455.41;;;25.36;34.29
20624;BME280;10471;42.736;23.346;2022-09-25T14:52:27;95456.91;;;25.34;32.81
20624;BME280;10471;42.736;23.346;2022-09-25T14:54:55;95456.09;;;25.33;33.56
20624;BME280;10471;42.736;23.346;2022-09-25T14:57:34;95452.03;;;25.17;33.09
20624;BME280;10471;42.736;23.346;2022-09-25T15:00:06;95446.16;;;24.86;32.74
20624;BME280;10471;42.736;23.346;2022-09-25T15:02:38;95451.59;;;24.89;33.59
20624;BME280;10471;42.736;23.346;2022-09-25T15:07:52;95460.50;;;24.67;33.41
20624;BME280;10471;42.736;23.346;2022-09-25T15:13:16;95458.16;;;24.66;34.94
20624;BME280;10471;42.736;23.346;2022-09-25T15:15:44;95462.03;;;24.68;34.54
20624;BME280;10471;42.736;23.346;2022-09-25T15:18:30;95459.53;;;24.34;34.43
20624;BME280;10471;42.736;23.346;2022-09-25T15:20:57;95454.44;;;24.29;33.75
20624;BME280;10471;42.736;23.346;2022-09-25T15:23:22;95460.75;;;23.95;34.83
20624;BME280;10471;42.736;23.346;2022-09-25T15:25:51;95460.19;;;23.86;34.62
20624;BME280;10471;42.736;23.346;2022-09-25T15:28:19;95455.13;;;23.66;36.08
20624;BME280;10471;42.736;23.346;2022-09-25T15:30:58;95459.03;;;23.50;35.39
20624;BME280;10471;42.736;23.346;2022-09-25T15:33:27;95449.84;;;23.51;35.33